Time;durP1;ratioP1;P1;durP2;ratioP2;P2;SDS_P1;SDS_P2;PMS_P1;PMS_P2;Temp;Humidity;BMP_temperature;BMP_pressure;BME280_temperature;BME280_humidity;BME280_pressure;Samples;Min_cycle;Max_cycle;Signal;HPM_P1;HPM_P2
2023/11/12 00:02:03;;;;;;;3.78;1.63;;;;;;;8.36;100.00;99247.75;5098266;28;20132;-43
2023/11/12 00:04:33;;;;;;;2.22;1.40;;;;;;;8.26;100.00;99242.19;5098403;28;20082;-43
2023/11/12 00:07:02;;;;;;;3.38;1.73;;;;;;;8.26;100.00;99244.84;5099490;28;20053;-43
2023/11/12 00:09:31;;;;;;;2.83;1.55;;;;;;;8.39;100.00;99245.75;5099052;28;20048;-43
2023/11/12 00:11:59;;;;;;;3.70;1.80;;;;;;;8.36;100.00;99232.69;5098035;28;20101;-42
2023/11/12 00:14:28;;;;;;;3.08;1.70;;;;;;;8.42;100.00;99240.25;5097949;28;20094;-41
2023/11/12 00:16:58;;;;;;;3.20;1.73;;;;;;;8.60;100.00;99249.63;5098273;28;20075;-41
2023/11/12 00:19:26;;;;;;;3.47;1.40;;;;;;;8.55;100.00;99242.91;5098105;28;20598;-43
2023/11/12 00:21:57;;;;;;;3.47;1.88;;;;;;;8.17;100.00;99259.59;5097921;28;20055;-42
2023/11/12 00:24:26;;;;;;;3.10;1.58;;;;;;;8.44;100.00;99251.63;5098116;28;20040;-43
2023/11/12 00:26:55;;;;;;;2.33;1.30;;;;;;;8.31;100.00;99253.38;5097756;28;20044;-43
2023/11/12 00:29:23;;;;;;;3.05;1.50;;;;;;;8.24;100.00;99258.22;5097843;28;20054;-42
2023/11/12 00:31:53;;;;;;;2.90;1.40;;;;;;;8.27;100.00;99257.16;5098179;28;20113;-42
2023/11/12 00:34:23;;;;;;;2.17;1.33;;;;;;;8.28;100.00;99258.88;5098048;28;20052;-44
2023/11/12 00:36:51;;;;;;;3.10;1.35;;;;;;;8.08;100.00;99262.84;5097931;28;20040;-44
2023/11/12 00:39:19;;;;;;;4.03;1.90;;;;;;;8.07;100.00;99261.13;5097859;28;20047;-43
2023/11/12 00:41:48;;;;;;;2.92;1.40;;;;;;;8.16;100.00;99268.50;5097754;28;20158;-43
2023/11/12 00:44:17;;;;;;;4.32;1.55;;;;;;;8.01;100.00;99259.75;5097990;28;20040;-41
2023/11/12 00:46:46;;;;;;;2.88;1.58;;;;;;;8.10;100.00;99276.00;5097914;28;20108;-43
2023/11/12 00:49:14;;;;;;;2.78;1.48;;;;;;;8.00;100.00;99276.63;5097727;28;20044;-43
2023/11/12 00:51:44;;;;;;;3.67;1.60;;;;;;;7.86;100.00;99283.78;5097729;28;20497;-40
2023/11/12 00:54:13;;;;;;;3.15;1.55;;;;;;;8.00;100.00;99266.00;5097513;28;20063;-43
2023/11/12 00:56:41;;;;;;;3.92;1.70;;;;;;;8.06;100.00;99269.22;5094826;28;20499;-42
2023/11/12 00:59:09;;;;;;;3.10;1.50;;;;;;;7.94;100.00;99262.91;5094403;28;20048;-42
2023/11/12 01:01:37;;;;;;;2.80;1.65;;;;;;;8.06;100.00;99274.53;5094404;28;20075;-43
2023/11/12 01:04:07;;;;;;;3.20;1.60;;;;;;;7.99;100.00;99274.06;5094358;28;20048;-42
2023/11/12 01:06:36;;;;;;;5.22;1.52;;;;;;;7.95;100.00;99270.75;5094331;28;20051;-43
2023/11/12 01:09:08;;;;;;;3.40;1.50;;;;;;;7.97;100.00;99275.97;5094526;28;20048;-42
2023/11/12 01:11:38;;;;;;;4.63;1.58;;;;;;;7.99;100.00;99269.59;5094239;28;20052;-41
2023/11/12 01:14:07;;;;;;;3.30;1.60;;;;;;;7.85;100.00;99285.59;5094103;28;20090;-43
2023/11/12 01:16:37;;;;;;;4.18;1.80;;;;;;;7.77;100.00;99269.28;5093929;28;20549;-42
2023/11/12 01:19:06;;;;;;;4.03;1.70;;;;;;;7.79;100.00;99272.69;5093847;28;20047;-44
2023/11/12 01:21:34;;;;;;;2.15;1.42;;;;;;;7.97;100.00;99282.13;5093884;28;20047;-43
2023/11/12 01:24:02;;;;;;;3.58;1.25;;;;;;;7.77;100.00;99284.38;5093684;28;20052;-43
2023/11/12 01:26:32;;;;;;;3.10;1.40;;;;;;;7.72;100.00;99274.03;5094022;28;20044;-43
2023/11/12 01:29:01;;;;;;;3.38;1.50;;;;;;;7.75;100.00;99282.66;5093809;28;20044;-43
2023/11/12 01:31:29;;;;;;;2.53;1.55;;;;;;;7.80;100.00;99268.22;5093694;28;20493;-43
2023/11/12 01:33:58;;;;;;;3.63;1.52;;;;;;;7.67;100.00;99274.34;5093603;28;20043;-43
2023/11/12 01:36:26;;;;;;;4.15;1.70;;;;;;;7.69;100.00;99276.88;5094073;28;20399;-42
2023/11/12 01:38:54;;;;;;;2.28;1.20;;;;;;;7.55;100.00;99280.44;5094020;28;20143;-42
2023/11/12 01:41:23;;;;;;;2.75;1.35;;;;;;;7.59;100.00;99279.28;5093585;28;20048;-43
2023/11/12 01:43:53;;;;;;;4.22;1.70;;;;;;;7.65;100.00;99270.09;5093825;28;20075;-44
2023/11/12 01:46:21;;;;;;;3.17;1.67;;;;;;;7.57;100.00;99286.50;5093534;28;20113;-43
2023/11/12 01:48:50;;;;;;;2.95;1.50;;;;;;;7.65;100.00;99278.91;5093463;28;20044;-43
2023/11/12 01:51:19;;;;;;;3.20;1.63;;;;;;;7.76;100.00;99288.84;5093586;28;20048;-43
2023/11/12 01:53:48;;;;;;;3.10;1.60;;;;;;;7.61;100.00;99292.44;5093290;28;20404;-42
2023/11/12 01:56:18;;;;;;;4.00;1.70;;;;;;;7.54;100.00;99272.56;5093413;28;20048;-47
2023/11/12 01:58:48;;;;;;;3.80;1.70;;;;;;;7.57;100.00;99285.63;5093251;28;20110;-43
2023/11/12 02:01:19;;;;;;;4.45;1.60;;;;;;;7.58;100.00;99290.00;5093638;28;20062;-42
2023/11/12 02:03:53;;;;;;;2.37;1.50;;;;;;;7.64;100.00;99295.78;5093262;28;20059;-43
2023/11/12 02:06:21;;;;;;;3.53;1.70;;;;;;;7.69;100.00;99292.81;5094492;28;20459;-43
2023/11/12 02:08:49;;;;;;;5.30;1.70;;;;;;;7.66;100.00;99299.19;5093418;28;20044;-43
2023/11/12 02:11:19;;;;;;;5.30;1.65;;;;;;;7.59;100.00;99307.63;5093001;28;20085;-43
2023/11/12 02:13:48;;;;;;;2.92;1.48;;;;;;;7.62;100.00;99304.75;5092723;28;20044;-43
2023/11/12 02:16:17;;;;;;;3.08;1.70;;;;;;;7.52;100.00;99312.44;5092931;28;20472;-43
2023/11/12 02:18:46;;;;;;;4.00;1.50;;;;;;;7.50;100.00;99302.88;5092858;28;20089;-42
2023/11/12 02:21:15;;;;;;;2.65;1.55;;;;;;;7.58;100.00;99308.56;5092929;28;20123;-45
2023/11/12 02:23:45;;;;;;;3.25;1.40;;;;;;;7.58;100.00;99305.91;5092805;28;20162;-44
2023/11/12 02:26:13;;;;;;;4.35;1.75;;;;;;;7.54;100.00;99315.03;5092775;28;20070;-43
2023/11/12 02:28:42;;;;;;;2.53;1.55;;;;;;;7.45;100.00;99305.84;5092943;28;20055;-44
2023/11/12 02:31:10;;;;;;;2.88;1.65;;;;;;;7.37;100.00;99306.31;5092847;28;20163;-44
2023/11/12 02:33:38;;;;;;;3.42;1.52;;;;;;;7.37;100.00;99311.63;5092426;28;20135;-44
2023/11/12 02:36:08;;;;;;;3.08;1.55;;;;;;;7.32;100.00;99311.03;5092901;28;20477;-41
2023/11/12 02:38:37;;;;;;;5.80;1.60;;;;;;;7.29;100.00;99313.88;5092411;28;20051;-43
2023/11/12 02:41:10;;;;;;;3.83;1.75;;;;;;;7.40;100.00;99322.03;5092619;28;20109;-43
2023/11/12 02:43:38;;;;;;;5.55;1.63;;;;;;;7.45;100.00;99327.91;5092391;28;20481;-43
2023/11/12 02:46:07;;;;;;;2.42;1.40;;;;;;;7.54;100.00;99330.94;5092200;28;20532;-42
2023/11/12 02:48:50;;;;;;;4.22;1.70;;;;;;;7.56;100.00;99329.06;5092230;28;20044;-44
2023/11/12 02:51:19;;;;;;;3.95;1.48;;;;;;;7.59;100.00;99334.16;5092184;28;20047;-44
2023/11/12 02:53:47;;;;;;;4.60;1.90;;;;;;;7.41;100.00;99342.31;5092195;28;20125;-43
2023/11/12 02:56:17;;;;;;;3.10;1.42;;;;;;;7.29;100.00;99340.41;5092333;28;20048;-44
2023/11/12 02:58:46;;;;;;;3.92;1.60;;;;;;;7.32;100.00;99355.28;5092265;28;20047;-42
2023/11/12 03:01:14;;;;;;;4.68;1.50;;;;;;;7.23;100.00;99348.72;5092306;28;20381;-42
2023/11/12 03:03:42;;;;;;;3.25;1.60;;;;;;;7.32;100.00;99348.16;5092009;28;20138;-42
2023/11/12 03:06:11;;;;;;;3.15;1.42;;;;;;;7.27;100.00;99354.72;5092175;28;20353;-43
2023/11/12 03:08:41;;;;;;;4.38;1.80;;;;;;;7.40;100.00;99360.97;5091908;28;20550;-42
2023/11/12 03:11:12;;;;;;;6.13;1.88;;;;;;;7.43;100.00;99361.66;5091793;28;20569;-43
2023/11/12 03:13:41;;;;;;;4.55;1.80;;;;;;;7.46;100.00;99373.88;5091749;28;20051;-43
2023/11/12 03:16:10;;;;;;;3.90;1.80;;;;;;;7.29;100.00;99368.75;5091764;28;20043;-42
2023/11/12 03:18:38;;;;;;;3.15;1.75;;;;;;;7.38;100.00;99376.13;5091638;28;20548;-44
2023/11/12 03:21:10;;;;;;;5.28;1.70;;;;;;;7.31;100.00;99372.16;5091176;28;20092;-43
2023/11/12 03:23:40;;;;;;;4.28;1.95;;;;;;;7.34;100.00;99367.53;5091613;28;20051;-44
2023/11/12 03:26:08;;;;;;;2.70;1.60;;;;;;;7.33;100.00;99380.84;5091821;28;20090;-45
2023/11/12 03:28:37;;;;;;;3.25;1.40;;;;;;;7.26;100.00;99379.53;5091660;28;20048;-43
2023/11/12 03:31:07;;;;;;;2.72;1.35;;;;;;;7.31;100.00;99378.31;5091720;28;20044;-43
2023/11/12 03:33:36;;;;;;;4.32;1.70;;;;;;;7.20;100.00;99375.44;5091720;28;20055;-44
2023/11/12 03:36:06;;;;;;;2.28;1.45;;;;;;;7.31;100.00;99385.41;5091803;28;20448;-43
2023/11/12 03:38:34;;;;;;;3.28;1.60;;;;;;;7.32;100.00;99393.28;5091566;28;20052;-43
2023/11/12 03:41:03;;;;;;;3.45;1.50;;;;;;;7.29;100.00;99388.16;5091499;28;20044;-44
2023/11/12 03:43:31;;;;;;;2.72;1.38;;;;;;;7.33;100.00;99391.47;5091745;28;20063;-43
2023/11/12 03:45:59;;;;;;;6.03;1.90;;;;;;;7.24;100.00;99392.03;5091758;28;20048;-43
2023/11/12 03:48:29;;;;;;;3.28;1.50;;;;;;;7.32;100.00;99380.00;5091590;28;20075;-43
2023/11/12 03:50:58;;;;;;;5.20;1.73;;;;;;;7.40;100.00;99388.34;5091603;28;20090;-43
2023/11/12 03:53:26;;;;;;;3.88;1.50;;;;;;;7.40;100.00;99390.16;5091536;28;20131;-44
2023/11/12 03:55:54;;;;;;;2.28;1.50;;;;;;;7.38;100.00;99387.59;5091568;28;20078;-42
2023/11/12 03:58:23;;;;;;;3.25;1.48;;;;;;;7.46;100.00;99397.75;5091847;28;20044;-43
2023/11/12 04:00:51;;;;;;;3.25;1.65;;;;;;;7.39;100.00;99391.09;5092062;28;20077;-43
2023/11/12 04:03:20;;;;;;;3.53;1.70;;;;;;;7.44;100.00;99399.66;5092070;28;20394;-43
2023/11/12 04:05:50;;;;;;;5.10;1.42;;;;;;;7.55;100.00;99397.19;5093053;28;20080;-43
2023/11/12 04:08:19;;;;;;;4.35;1.90;;;;;;;7.50;100.00;99399.25;5091336;28;20407;-45
2023/11/12 04:10:48;;;;;;;3.55;1.67;;;;;;;7.36;100.00;99396.63;5091144;28;20493;-43
2023/11/12 04:13:17;;;;;;;3.13;1.65;;;;;;;7.20;100.00;99394.00;5091071;28;20052;-42
2023/11/12 04:15:45;;;;;;;3.03;1.48;;;;;;;7.08;100.00;99395.59;5091384;28;20059;-43
2023/11/12 04:18:15;;;;;;;3.15;1.67;;;;;;;7.22;100.00;99399.22;5090965;28;20052;-42
2023/11/12 04:20:44;;;;;;;4.63;1.50;;;;;;;7.25;100.00;99404.38;5091345;28;20044;-42
2023/11/12 04:23:14;;;;;;;2.95;1.70;;;;;;;7.25;100.00;99410.53;5091057;28;20056;-44
2023/11/12 04:25:44;;;;;;;3.78;1.48;;;;;;;7.29;100.00;99409.38;5091315;28;20051;-43
2023/11/12 04:28:12;;;;;;;2.70;1.42;;;;;;;7.33;100.00;99408.25;5091036;28;20066;-43
2023/11/12 04:30:40;;;;;;;4.10;1.83;;;;;;;7.30;100.00;99411.09;5091589;28;20106;-43
2023/11/12 04:33:09;;;;;;;3.80;1.67;;;;;;;7.43;100.00;99419.16;5094852;28;20052;-43
2023/11/12 04:35:37;;;;;;;3.08;1.70;;;;;;;7.16;100.00;99426.97;5094780;28;20048;-46
2023/11/12 04:38:06;;;;;;;3.33;1.50;;;;;;;7.14;100.00;99428.84;5094947;28;20089;-44
2023/11/12 04:40:35;;;;;;;2.88;1.70;;;;;;;7.22;100.00;99426.59;5095044;28;20455;-46
2023/11/12 04:43:04;;;;;;;3.35;1.63;;;;;;;7.11;100.00;99429.88;5094865;28;20040;-44
2023/11/12 04:45:32;;;;;;;3.25;1.80;;;;;;;7.14;100.00;99429.72;5094742;28;20050;-43
2023/11/12 04:48:01;;;;;;;3.90;1.60;;;;;;;6.98;100.00;99433.38;5094513;28;20540;-43
2023/11/12 04:50:29;;;;;;;3.67;1.50;;;;;;;6.95;100.00;99423.81;5094524;28;20055;-42
2023/11/12 04:52:58;;;;;;;3.08;1.40;;;;;;;7.17;100.00;99428.69;5094660;28;20109;-42
2023/11/12 04:55:26;;;;;;;2.30;1.40;;;;;;;7.26;100.00;99430.78;5094803;28;20052;-42
2023/11/12 04:57:56;;;;;;;4.70;2.00;;;;;;;7.30;100.00;99440.25;5094132;28;20051;-44
2023/11/12 05:00:24;;;;;;;3.33;1.80;;;;;;;7.13;100.00;99440.41;5094510;28;20101;-42
2023/11/12 05:02:52;;;;;;;2.92;1.73;;;;;;;7.07;100.00;99440.78;5094435;28;20130;-43
2023/11/12 05:05:21;;;;;;;3.78;1.60;;;;;;;7.11;100.00;99450.25;5094534;28;20056;-44
2023/11/12 05:07:49;;;;;;;4.63;1.70;;;;;;;7.09;100.00;99449.50;5094577;28;20052;-43
2023/11/12 05:10:18;;;;;;;3.53;1.73;;;;;;;7.11;100.00;99455.56;5094142;28;20493;-42
2023/11/12 05:12:46;;;;;;;2.92;1.45;;;;;;;7.16;100.00;99456.16;5094254;28;20048;-43
2023/11/12 05:15:17;;;;;;;4.13;1.60;;;;;;;7.21;100.00;99462.03;5094142;28;20044;-41
2023/11/12 05:17:45;;;;;;;3.45;1.60;;;;;;;7.06;100.00;99455.84;5094548;28;20180;-43
2023/11/12 05:20:14;;;;;;;3.40;1.63;;;;;;;6.88;100.00;99471.00;5094309;28;20040;-43
2023/11/12 05:22:42;;;;;;;3.08;1.63;;;;;;;6.78;100.00;99464.53;5094080;28;20428;-42
2023/11/12 05:25:12;;;;;;;3.20;1.73;;;;;;;6.76;100.00;99469.06;5094140;28;20052;-43
2023/11/12 05:27:41;;;;;;;3.17;1.65;;;;;;;6.79;100.00;99468.88;5093908;28;20078;-42
2023/11/12 05:30:10;;;;;;;3.30;1.65;;;;;;;6.68;100.00;99463.34;5093710;28;20098;-43
2023/11/12 05:32:40;;;;;;;3.85;1.60;;;;;;;6.65;100.00;99458.19;5093632;28;20500;-44
2023/11/12 05:35:08;;;;;;;3.88;1.90;;;;;;;6.69;100.00;99459.75;5093834;28;20493;-43
2023/11/12 05:37:37;;;;;;;3.17;1.70;;;;;;;6.69;100.00;99459.75;5093715;28;20080;-43
2023/11/12 05:40:06;;;;;;;5.03;1.73;;;;;;;6.64;100.00;99455.63;5093702;28;20052;-42
2023/11/12 05:42:34;;;;;;;5.03;1.60;;;;;;;6.69;100.00;99459.75;5092883;28;20044;-42
2023/11/12 05:45:03;;;;;;;5.43;1.63;;;;;;;6.73;100.00;99466.56;5093479;28;20207;-43
2023/11/12 05:47:31;;;;;;;6.40;1.80;;;;;;;6.63;100.00;99467.19;5093560;28;20051;-43
2023/11/12 05:50:01;;;;;;;4.65;2.10;;;;;;;6.51;100.00;99466.09;5093566;28;20054;-43
2023/11/12 05:52:29;;;;;;;3.53;2.00;;;;;;;6.46;100.00;99471.63;5093371;28;20055;-43
2023/11/12 05:54:58;;;;;;;3.63;1.80;;;;;;;6.47;100.00;99475.16;5093319;28;20143;-42
2023/11/12 05:57:26;;;;;;;4.07;1.88;;;;;;;6.68;100.00;99481.03;5093143;28;20052;-43
2023/11/12 05:59:54;;;;;;;5.63;2.10;;;;;;;6.70;100.00;99481.81;5093332;28;20549;-42
2023/11/12 06:02:23;;;;;;;4.82;1.90;;;;;;;6.75;100.00;99491.19;5093381;28;20078;-44
2023/11/12 06:04:51;;;;;;;3.60;2.03;;;;;;;6.63;100.00;99486.59;5094091;28;20252;-42
2023/11/12 06:07:21;;;;;;;3.75;2.20;;;;;;;6.68;100.00;99489.00;5093724;28;20047;-43
2023/11/12 06:09:49;;;;;;;3.90;2.22;;;;;;;6.61;100.00;99499.06;5092974;28;20048;-43
2023/11/12 06:12:18;;;;;;;5.38;2.10;;;;;;;6.63;100.00;99491.03;5093240;28;20044;-42
2023/11/12 06:14:46;;;;;;;5.63;2.30;;;;;;;6.69;100.00;99498.66;5093062;28;20044;-42
2023/11/12 06:17:16;;;;;;;5.85;2.10;;;;;;;6.75;100.00;99501.78;5095088;28;20051;-44
2023/11/12 06:19:46;;;;;;;4.65;1.83;;;;;;;6.71;100.00;99508.22;5096622;28;20051;-42
2023/11/12 06:22:15;;;;;;;4.28;2.00;;;;;;;6.75;100.00;99512.38;5092846;28;20048;-44
2023/11/12 06:24:45;;;;;;;4.22;1.90;;;;;;;6.78;100.00;99514.03;5092677;28;20497;-42
2023/11/12 06:27:14;;;;;;;3.97;2.20;;;;;;;6.83;100.00;99520.78;5092879;28;20455;-43
2023/11/12 06:29:43;;;;;;;4.18;2.30;;;;;;;6.88;100.00;99512.56;5092828;28;20383;-43
2023/11/12 06:32:11;;;;;;;4.22;2.22;;;;;;;6.83;100.00;99526.06;5092516;28;20051;-43
2023/11/12 06:34:39;;;;;;;5.78;2.75;;;;;;;6.98;100.00;99520.88;5092469;28;20055;-42
2023/11/12 06:37:08;;;;;;;7.00;2.30;;;;;;;6.94;100.00;99529.91;5092515;28;20048;-42
2023/11/12 06:39:36;;;;;;;5.18;2.28;;;;;;;6.97;100.00;99535.06;5092768;28;20123;-43
2023/11/12 06:42:06;;;;;;;4.13;2.10;;;;;;;6.97;100.00;99529.75;5092589;28;20119;-42
2023/11/12 06:44:38;;;;;;;4.50;2.35;;;;;;;6.72;100.00;99533.78;5092646;28;20462;-43
2023/11/12 06:47:07;;;;;;;5.30;2.20;;;;;;;6.91;100.00;99538.06;5092649;28;20105;-44
2023/11/12 06:49:35;;;;;;;5.22;2.72;;;;;;;7.11;100.00;99540.41;5092332;28;20509;-44
2023/11/12 06:52:04;;;;;;;5.18;2.40;;;;;;;7.03;100.00;99553.25;5092537;28;20043;-43
2023/11/12 06:54:32;;;;;;;5.82;2.60;;;;;;;7.14;100.00;99550.84;5091507;28;20059;-43
2023/11/12 06:57:00;;;;;;;4.05;2.30;;;;;;;7.19;100.00;99554.09;5092540;28;20055;-43
2023/11/12 06:59:30;;;;;;;4.22;2.53;;;;;;;7.11;100.00;99562.50;5092314;28;20082;-43
2023/11/12 07:01:58;;;;;;;4.63;2.50;;;;;;;7.30;100.00;99557.00;5092362;28;20390;-44
2023/11/12 07:04:27;;;;;;;6.13;2.67;;;;;;;7.40;100.00;99560.81;5091951;28;20145;-43
2023/11/12 07:06:55;;;;;;;6.13;2.45;;;;;;;7.36;100.00;99564.59;5092499;28;20109;-42
2023/11/12 07:09:36;;;;;;;4.90;2.15;;;;;;;7.51;100.00;99569.94;5092197;28;20097;-43
2023/11/12 07:12:06;;;;;;;4.47;2.58;;;;;;;7.53;100.00;99568.06;5092240;28;20132;-43
2023/11/12 07:14:39;;;;;;;5.43;2.50;;;;;;;7.45;100.00;99561.41;5092220;28;20128;-42
2023/11/12 07:17:07;;;;;;;4.28;2.00;;;;;;;7.57;100.00;99559.00;5092001;28;20052;-42
2023/11/12 07:19:36;;;;;;;4.55;2.25;;;;;;;7.42;100.00;99564.22;5091997;28;20417;-42
2023/11/12 07:22:05;;;;;;;5.25;2.38;;;;;;;7.31;100.00;99563.16;5091985;28;20689;-43
2023/11/12 07:24:36;;;;;;;5.40;2.50;;;;;;;7.35;100.00;99554.94;5091900;28;20421;-42
2023/11/12 07:27:05;;;;;;;4.00;2.33;;;;;;;7.33;100.00;99562.09;5091629;28;20485;-41
2023/11/12 07:29:33;;;;;;;4.18;2.63;;;;;;;7.47;100.00;99570.13;5091684;28;20480;-44
2023/11/12 07:32:06;;;;;;;6.13;3.30;;;;;;;7.57;100.00;99574.91;5091919;28;20091;-44
2023/11/12 07:34:35;;;;;;;4.85;2.50;;;;;;;7.47;100.00;99570.13;5091459;28;20493;-44
2023/11/12 07:37:04;;;;;;;5.75;2.78;;;;;;;7.43;100.00;99573.94;5091661;28;20048;-45
2023/11/12 07:39:33;;;;;;;7.05;3.30;;;;;;;7.45;100.00;99566.72;5091715;28;20506;-43
2023/11/12 07:42:01;;;;;;;8.13;3.08;;;;;;;7.62;100.00;99568.38;5091502;28;20049;-42
2023/11/12 07:44:31;;;;;;;7.30;3.53;;;;;;;7.74;100.00;99577.44;5091705;28;20510;-44
2023/11/12 07:46:59;;;;;;;4.95;2.55;;;;;;;7.77;100.00;99577.25;5091609;28;20088;-44
2023/11/12 07:49:29;;;;;;;4.07;2.53;;;;;;;7.86;100.00;99586.47;5091504;28;20048;-44
2023/11/12 07:51:57;;;;;;;5.82;2.42;;;;;;;7.99;100.00;99582.97;5091629;28;20040;-42
2023/11/12 07:54:27;;;;;;;5.30;2.30;;;;;;;7.98;100.00;99597.19;5091311;28;20051;-42
2023/11/12 07:56:55;;;;;;;4.70;2.50;;;;;;;8.01;100.00;99599.69;5091579;28;20045;-43
2023/11/12 07:59:24;;;;;;;5.63;2.80;;;;;;;8.09;100.00;99601.00;5091634;28;20126;-45
2023/11/12 08:01:52;;;;;;;4.75;2.40;;;;;;;8.20;100.00;99601.22;5091585;28;20054;-44
2023/11/12 08:04:20;;;;;;;5.45;2.47;;;;;;;8.29;100.00;99595.34;5091435;28;20454;-42
2023/11/12 08:06:50;;;;;;;6.07;2.53;;;;;;;8.49;100.00;99605.66;5093946;28;20040;-43
2023/11/12 08:09:19;;;;;;;5.18;2.53;;;;;;;8.68;100.00;99601.84;5095376;28;20653;-44
2023/11/12 08:11:48;;;;;;;4.63;2.60;;;;;;;8.40;100.00;99606.22;5095663;28;20127;-44
2023/11/12 08:14:16;;;;;;;6.15;2.80;;;;;;;8.54;100.00;99606.22;5095611;28;20146;-43
2023/11/12 08:16:44;;;;;;;6.22;3.00;;;;;;;8.55;100.00;99602.59;5095356;28;20143;-45
2023/11/12 08:19:13;;;;;;;5.47;2.70;;;;;;;8.57;100.00;99615.78;5095465;28;20668;-44
2023/11/12 08:21:41;;;;;;;5.28;2.60;;;;;;;8.22;100.00;99620.59;5095406;28;20140;-47
2023/11/12 08:24:11;;;;;;;6.53;2.65;;;;;;;8.06;100.00;99614.50;5095454;28;20083;-45
2023/11/12 08:26:43;;;;;;;5.93;2.92;;;;;;;7.77;100.00;99619.72;5095424;28;20044;-44
2023/11/12 08:29:27;;;;;;;6.28;2.60;;;;;;;7.60;100.00;99612.72;5095332;28;20048;-43
2023/11/12 08:36:19;;;;;;;6.97;2.60;;;;;;;8.03;100.00;99621.69;5094757;28;20048;-44
2023/11/12 08:39:12;;;;;;;4.47;2.58;;;;;;;8.01;100.00;99622.75;5092380;28;20156;-45
2023/11/12 08:45:58;;;;;;;7.68;3.10;;;;;;;7.75;100.00;99632.25;5089687;28;20078;-43
2023/11/12 08:49:06;;;;;;;5.40;3.20;;;;;;;7.70;100.00;99629.84;5092436;28;20048;-42
2023/11/12 08:51:57;;;;;;;6.85;2.75;;;;;;;7.92;100.00;99634.78;5093780;28;20101;-42
2023/11/12 08:54:53;;;;;;;6.35;2.92;;;;;;;8.00;100.00;99640.44;5093965;28;20390;-44
2023/11/12 08:58:23;;;;;;;6.88;3.30;;;;;;;8.04;100.00;99634.03;5090960;28;20051;-43
2023/11/12 09:01:28;;;;;;;5.57;2.97;;;;;;;8.21;100.00;99641.00;5091248;28;20056;-45
2023/11/12 09:04:41;;;;;;;4.70;2.95;;;;;;;8.15;100.00;99641.34;5093310;28;20066;-43
2023/11/12 09:07:54;;;;;;;5.20;2.90;;;;;;;8.33;100.00;99648.22;5082936;28;20061;-42
2023/11/12 09:11:14;;;;;;;5.32;2.80;;;;;;;8.39;100.00;99649.66;5059925;28;20488;-43
2023/11/12 09:14:10;;;;;;;;;;;;;;;;;;;;;
2023/11/12 09:17:12;;;;;;;4.55;2.75;;;;;;;8.60;100.00;99653.69;5092805;28;20421;-44
2023/11/12 09:19:42;;;;;;;;;;;;;;;8.67;100.00;99651.50;5092507;28;20466;-50
2023/11/12 09:22:12;;;;;;;5.63;3.00;;;;;;;8.69;100.00;99652.28;5092988;28;19964;-44
2023/11/12 09:24:43;;;;;;;7.20;3.20;;;;;;;8.99;100.00;99654.81;5093641;28;20052;-44
2023/11/12 09:27:31;;;;;;;5.90;3.13;;;;;;;9.06;100.00;99656.13;5094011;28;20465;-42
2023/11/12 09:30:01;;;;;;;5.00;3.17;;;;;;;9.05;100.00;99653.56;5093958;28;20131;-45
2023/11/12 09:32:30;;;;;;;6.68;3.10;;;;;;;9.19;100.00;99650.91;5095764;28;20055;-43
2023/11/12 09:34:59;;;;;;;7.35;3.95;;;;;;;9.20;100.00;99651.75;5093353;28;20072;-42
2023/11/12 09:37:27;;;;;;;7.10;3.70;;;;;;;9.22;100.00;99640.06;5094217;28;20524;-44
2023/11/12 09:39:55;;;;;;;6.63;3.65;;;;;;;9.17;100.00;99651.00;5093455;28;20048;-43
2023/11/12 09:42:27;;;;;;;8.23;4.10;;;;;;;9.34;100.00;99649.03;5093495;28;20071;-42
2023/11/12 09:44:56;;;;;;;6.03;3.25;;;;;;;9.36;100.00;99652.44;5090384;28;20052;-43
2023/11/12 09:47:36;;;;;;;5.25;2.83;;;;;;;9.48;100.00;99650.84;5084044;28;20056;-43
2023/11/12 09:50:10;;;;;;;5.53;2.83;;;;;;;9.67;100.00;99651.34;5090997;28;20044;-43
2023/11/12 09:52:39;;;;;;;9.25;3.17;;;;;;;9.43;100.00;99651.97;5092153;28;20059;-43
2023/11/12 09:55:10;;;;;;;5.95;2.70;;;;;;;9.68;100.00;99645.91;5092631;28;20067;-42
2023/11/12 09:57:38;;;;;;;5.78;2.72;;;;;;;9.37;100.00;99644.41;5091863;28;20052;-42
2023/11/12 10:00:08;;;;;;;6.57;3.60;;;;;;;9.57;100.00;99640.44;5090495;28;20542;-42
2023/11/12 10:02:38;;;;;;;7.18;3.05;;;;;;;9.41;100.00;99658.34;5091920;28;20055;-41
2023/11/12 10:05:11;;;;;;;6.13;3.13;;;;;;;9.47;100.00;99644.66;5091743;28;20050;-45
2023/11/12 10:07:43;;;;;;;5.00;2.83;;;;;;;9.66;100.00;99639.81;5091690;28;20508;-41
2023/11/12 10:10:26;;;;;;;4.95;2.90;;;;;;;9.51;100.00;99639.97;5090809;28;20044;-42
2023/11/12 10:12:55;;;;;;;5.35;2.63;;;;;;;9.67;100.00;99622.88;5088365;28;20097;-45
2023/11/12 10:15:25;;;;;;;3.92;2.58;;;;;;;9.80;100.00;99636.22;5092134;28;20055;-43
2023/11/12 10:17:56;;;;;;;5.68;2.65;;;;;;;9.92;100.00;99634.56;5091877;28;20051;-42
2023/11/12 10:20:31;;;;;;;4.32;2.50;;;;;;;9.82;100.00;99633.47;5090009;28;20048;-44
2023/11/12 10:23:01;;;;;;;4.18;2.53;;;;;;;9.90;100.00;99636.47;5091478;28;20139;-42
2023/11/12 10:25:38;;;;;;;6.68;2.80;;;;;;;10.08;100.00;99639.72;5091910;28;20514;-42
2023/11/12 10:28:08;;;;;;;3.88;2.42;;;;;;;10.17;100.00;99634.63;5091623;28;20052;-43
2023/11/12 10:30:37;;;;;;;6.38;3.25;;;;;;;10.13;100.00;99642.91;5090428;28;20378;-41
2023/11/12 10:33:19;;;;;;;3.33;2.30;;;;;;;10.30;100.00;99645.31;5091300;28;20040;-42
2023/11/12 10:35:48;;;;;;;5.68;2.45;;;;;;;10.21;100.00;99648.56;5091517;28;20043;-42
2023/11/12 10:38:18;;;;;;;4.20;2.60;;;;;;;10.15;100.00;99647.19;5090860;28;20116;-43
2023/11/12 10:41:01;;;;;;;6.10;2.72;;;;;;;10.14;100.00;99650.81;5091017;28;20098;-42
2023/11/12 10:43:31;;;;;;;3.95;2.35;;;;;;;10.13;100.00;99649.09;5090848;28;20469;-42
2023/11/12 10:46:00;;;;;;;5.55;2.40;;;;;;;10.33;100.00;99650.47;5091397;28;20474;-43
2023/11/12 10:48:35;;;;;;;5.45;2.30;;;;;;;10.44;100.00;99647.03;5089853;28;20602;-42
2023/11/12 10:51:05;;;;;;;5.32;2.13;;;;;;;10.25;100.00;99648.31;5091389;28;20044;-43
2023/11/12 10:53:36;;;;;;;3.45;2.22;;;;;;;10.15;100.00;99646.34;5091069;28;20048;-43
2023/11/12 10:56:06;;;;;;;4.03;2.00;;;;;;;9.98;100.00;99644.81;5090960;28;20094;-42
2023/11/12 10:58:35;;;;;;;3.65;2.10;;;;;;;9.90;100.00;99647.13;5089667;28;20043;-41
2023/11/12 11:01:06;;;;;;;7.00;2.78;;;;;;;9.84;100.00;99647.53;5090501;28;20579;-43
2023/11/12 11:03:37;;;;;;;3.58;2.03;;;;;;;10.02;100.00;99647.16;5090838;28;20044;-41
2023/11/12 11:06:08;;;;;;;3.80;1.95;;;;;;;9.97;100.00;99645.78;5089512;28;20055;-42
2023/11/12 11:08:36;;;;;;;4.97;1.95;;;;;;;10.07;100.00;99641.53;5089383;28;20151;-41
2023/11/12 11:11:07;;;;;;;5.43;2.53;;;;;;;10.08;100.00;99645.91;5091046;28;20147;-41
2023/11/12 11:13:39;;;;;;;5.90;2.95;;;;;;;10.18;100.00;99656.78;5090902;28;20135;-42
2023/11/12 11:16:08;;;;;;;4.30;1.83;;;;;;;10.12;100.00;99658.03;5090917;28;20059;-42
2023/11/12 11:18:52;;;;;;;4.05;2.00;;;;;;;10.19;100.00;99656.69;5089247;28;20059;-43
2023/11/12 11:21:21;;;;;;;3.03;1.90;;;;;;;10.22;100.00;99653.81;5090486;28;20044;-41
2023/11/12 11:23:52;;;;;;;3.75;1.90;;;;;;;10.29;100.00;99663.13;5090988;28;20052;-42
2023/11/12 11:26:38;;;;;;;4.38;1.88;;;;;;;10.34;100.00;99645.97;5092412;28;20102;-43
2023/11/12 11:29:14;;;;;;;4.55;1.70;;;;;;;10.30;100.00;99650.66;5093888;28;20048;-44
2023/11/12 11:32:17;;;;;;;3.50;1.88;;;;;;;10.30;100.00;99651.50;5092236;28;20039;-46
2023/11/12 11:34:48;;;;;;;4.00;1.60;;;;;;;10.46;100.00;99656.63;5092704;28;20048;-43
2023/11/12 11:37:19;;;;;;;5.28;2.08;;;;;;;10.62;100.00;99650.25;5092324;28;20079;-44
2023/11/12 11:39:47;;;;;;;3.17;1.58;;;;;;;10.64;100.00;99654.50;5088466;28;20056;-43
2023/11/12 11:42:19;;;;;;;3.47;1.80;;;;;;;10.81;100.00;99654.19;5087226;28;20121;-43
2023/11/12 11:44:49;;;;;;;5.37;2.13;;;;;;;11.06;100.00;99657.75;5090270;28;20077;-42
2023/11/12 11:47:22;;;;;;;4.47;1.83;;;;;;;11.09;100.00;99658.38;5090052;28;20452;-42
2023/11/12 11:50:31;;;;;;;3.10;1.67;;;;;;;11.24;100.00;99658.25;5090715;28;20040;-43
2023/11/12 11:53:14;;;;;;;4.22;1.70;;;;;;;11.24;100.00;99664.47;5090830;28;20051;-44
2023/11/12 11:55:48;;;;;;;3.38;1.90;;;;;;;11.20;100.00;99660.31;5091781;28;20048;-43
2023/11/12 11:58:20;;;;;;;3.33;1.60;;;;;;;11.17;100.00;99669.38;5091592;28;20087;-44
2023/11/12 12:00:58;;;;;;;2.55;1.50;;;;;;;11.28;100.00;99671.25;5091789;28;20080;-43
2023/11/12 12:03:27;;;;;;;3.28;1.40;;;;;;;11.39;100.00;99658.03;5091742;28;20109;-44